sensor_id;sensor_type;location;lat;lon;timestamp;P1;durP1;ratioP1;P2;durP2;ratioP2
4096;SDS011;2062;50.694;7.246;2024-03-06T00:00:03;5.05;;;2.10;;
4096;SDS011;2062;50.694;7.246;2024-03-06T00:02:32;5.75;;;1.80;;
4096;SDS011;2062;50.694;7.246;2024-03-06T00:05:00;5.15;;;1.80;;
4096;SDS011;2062;50.694;7.246;2024-03-06T00:07:26;4.73;;;1.53;;
4096;SDS011;2062;50.694;7.246;2024-03-06T00:09:55;4.30;;;1.40;;
4096;SDS011;2062;50.694;7.246;2024-03-06T00:12:21;5.63;;;1.50;;
4096;SDS011;2062;50.694;7.246;2024-03-06T00:14:48;4.75;;;1.45;;
4096;SDS011;2062;50.694;7.246;2024-03-06T00:17:15;4.30;;;1.35;;
4096;SDS011;2062;50.694;7.246;2024-03-06T00:19:42;4.77;;;1.53;;
4096;SDS011;2062;50.694;7.246;2024-03-06T00:22:09;5.10;;;1.45;;
4096;SDS011;2062;50.694;7.246;2024-03-06T00:24:36;6.13;;;1.80;;
4096;SDS011;2062;50.694;7.246;2024-03-06T00:27:04;5.45;;;1.40;;
4096;SDS011;2062;50.694;7.246;2024-03-06T00:29:31;4.20;;;1.40;;
4096;SDS011;2062;50.694;7.246;2024-03-06T00:31:57;4.70;;;1.40;;
4096;SDS011;2062;50.694;7.246;2024-03-06T00:34:24;5.13;;;1.60;;
4096;SDS011;2062;50.694;7.246;2024-03-06T00:36:52;5.28;;;1.80;;
4096;SDS011;2062;50.694;7.246;2024-03-06T00:39:19;5.00;;;1.80;;
4096;SDS011;2062;50.694;7.246;2024-03-06T00:41:46;4.75;;;1.70;;
4096;SDS011;2062;50.694;7.246;2024-03-06T00:44:14;5.70;;;1.93;;
4096;SDS011;2062;50.694;7.246;2024-03-06T00:46:42;5.70;;;1.77;;
4096;SDS011;2062;50.694;7.246;2024-03-06T00:49:08;6.90;;;2.15;;
4096;SDS011;2062;50.694;7.246;2024-03-06T00:51:35;6.38;;;2.10;;
4096;SDS011;2062;50.694;7.246;2024-03-06T00:54:02;6.00;;;1.80;;
4096;SDS011;2062;50.694;7.246;2024-03-06T00:56:29;6.63;;;2.10;;
4096;SDS011;2062;50.694;7.246;2024-03-06T00:58:57;6.85;;;2.35;;
4096;SDS011;2062;50.694;7.246;2024-03-06T01:01:25;6.72;;;2.42;;
4096;SDS011;2062;50.694;7.246;2024-03-06T01:03:52;8.50;;;2.92;;
4096;SDS011;2062;50.694;7.246;2024-03-06T01:06:20;6.22;;;2.80;;
4096;SDS011;2062;50.694;7.246;2024-03-06T01:08:47;8.07;;;3.10;;
4096;SDS011;2062;50.694;7.246;2024-03-06T01:11:13;10.32;;;2.92;;
4096;SDS011;2062;50.694;7.246;2024-03-06T01:13:40;7.45;;;3.08;;
4096;SDS011;2062;50.694;7.246;2024-03-06T01:16:07;7.82;;;3.10;;
4096;SDS011;2062;50.694;7.246;2024-03-06T01:18:35;8.77;;;3.22;;
4096;SDS011;2062;50.694;7.246;2024-03-06T01:21:02;8.17;;;3.43;;
4096;SDS011;2062;50.694;7.246;2024-03-06T01:23:29;8.82;;;3.17;;
4096;SDS011;2062;50.694;7.246;2024-03-06T01:25:56;8.45;;;3.53;;
4096;SDS011;2062;50.694;7.246;2024-03-06T01:28:23;9.77;;;3.40;;
4096;SDS011;2062;50.694;7.246;2024-03-06T01:30:50;9.15;;;3.47;;
4096;SDS011;2062;50.694;7.246;2024-03-06T01:33:16;8.20;;;3.30;;
4096;SDS011;2062;50.694;7.246;2024-03-06T01:35:45;7.63;;;3.25;;
4096;SDS011;2062;50.694;7.246;2024-03-06T01:38:11;9.02;;;3.25;;
4096;SDS011;2062;50.694;7.246;2024-03-06T01:40:42;8.00;;;2.80;;
4096;SDS011;2062;50.694;7.246;2024-03-06T01:43:17;7.75;;;2.97;;
4096;SDS011;2062;50.694;7.246;2024-03-06T01:45:47;8.90;;;3.40;;
4096;SDS011;2062;50.694;7.246;2024-03-06T01:48:14;6.35;;;2.58;;
4096;SDS011;2062;50.694;7.246;2024-03-06T01:50:42;7.45;;;2.47;;
4096;SDS011;2062;50.694;7.246;2024-03-06T01:53:10;8.02;;;2.60;;
4096;SDS011;2062;50.694;7.246;2024-03-06T01:55:38;6.22;;;2.67;;
4096;SDS011;2062;50.694;7.246;2024-03-06T01:58:05;5.70;;;2.20;;
4096;SDS011;2062;50.694;7.246;2024-03-06T02:00:32;5.68;;;2.33;;
4096;SDS011;2062;50.694;7.246;2024-03-06T02:03:00;6.88;;;2.67;;
4096;SDS011;2062;50.694;7.246;2024-03-06T02:05:27;7.38;;;2.70;;
4096;SDS011;2062;50.694;7.246;2024-03-06T02:07:56;6.50;;;2.42;;
4096;SDS011;2062;50.694;7.246;2024-03-06T02:10:26;6.57;;;2.23;;
4096;SDS011;2062;50.694;7.246;2024-03-06T02:12:53;6.88;;;2.63;;
4096;SDS011;2062;50.694;7.246;2024-03-06T02:15:20;7.85;;;2.30;;
4096;SDS011;2062;50.694;7.246;2024-03-06T02:17:47;4.93;;;1.70;;
4096;SDS011;2062;50.694;7.246;2024-03-06T02:20:14;5.72;;;2.00;;
4096;SDS011;2062;50.694;7.246;2024-03-06T02:22:42;5.33;;;1.77;;
4096;SDS011;2062;50.694;7.246;2024-03-06T02:25:10;5.97;;;2.20;;
4096;SDS011;2062;50.694;7.246;2024-03-06T02:27:37;5.57;;;2.10;;
4096;SDS011;2062;50.694;7.246;2024-03-06T02:30:05;6.07;;;1.90;;
4096;SDS011;2062;50.694;7.246;2024-03-06T02:32:32;6.75;;;1.95;;
4096;SDS011;2062;50.694;7.246;2024-03-06T02:35:00;5.77;;;1.80;;
4096;SDS011;2062;50.694;7.246;2024-03-06T02:37:28;6.75;;;1.90;;
4096;SDS011;2062;50.694;7.246;2024-03-06T02:39:56;5.60;;;1.80;;
4096;SDS011;2062;50.694;7.246;2024-03-06T02:42:24;6.22;;;2.42;;
4096;SDS011;2062;50.694;7.246;2024-03-06T02:44:52;5.78;;;2.00;;
4096;SDS011;2062;50.694;7.246;2024-03-06T02:47:19;6.87;;;1.67;;
4096;SDS011;2062;50.694;7.246;2024-03-06T02:49:46;5.95;;;1.52;;
4096;SDS011;2062;50.694;7.246;2024-03-06T02:52:13;6.60;;;1.85;;
4096;SDS011;2062;50.694;7.246;2024-03-06T02:54:40;4.55;;;1.60;;
4096;SDS011;2062;50.694;7.246;2024-03-06T02:57:08;6.38;;;1.58;;
4096;SDS011;2062;50.694;7.246;2024-03-06T02:59:35;4.73;;;1.47;;
4096;SDS011;2062;50.694;7.246;2024-03-06T03:02:02;4.63;;;1.42;;
4096;SDS011;2062;50.694;7.246;2024-03-06T03:04:29;4.18;;;1.48;;
4096;SDS011;2062;50.694;7.246;2024-03-06T03:06:56;6.35;;;1.60;;
4096;SDS011;2062;50.694;7.246;2024-03-06T03:09:23;4.85;;;1.40;;
4096;SDS011;2062;50.694;7.246;2024-03-06T03:11:50;4.63;;;1.40;;
4096;SDS011;2062;50.694;7.246;2024-03-06T03:14:18;5.43;;;1.38;;
4096;SDS011;2062;50.694;7.246;2024-03-06T03:16:45;4.68;;;1.40;;
4096;SDS011;2062;50.694;7.246;2024-03-06T03:19:11;5.43;;;1.15;;
4096;SDS011;2062;50.694;7.246;2024-03-06T03:21:41;6.80;;;1.52;;
4096;SDS011;2062;50.694;7.246;2024-03-06T03:24:08;5.10;;;1.30;;
4096;SDS011;2062;50.694;7.246;2024-03-06T03:26:36;4.70;;;1.20;;
4096;SDS011;2062;50.694;7.246;2024-03-06T03:29:03;4.18;;;1.00;;
4096;SDS011;2062;50.694;7.246;2024-03-06T03:31:31;4.53;;;1.00;;
4096;SDS011;2062;50.694;7.246;2024-03-06T03:33:58;4.63;;;1.20;;
4096;SDS011;2062;50.694;7.246;2024-03-06T03:36:25;3.77;;;1.00;;
4096;SDS011;2062;50.694;7.246;2024-03-06T03:38:51;3.47;;;0.90;;
4096;SDS011;2062;50.694;7.246;2024-03-06T03:41:19;4.57;;;0.98;;
4096;SDS011;2062;50.694;7.246;2024-03-06T03:43:45;3.95;;;1.10;;
4096;SDS011;2062;50.694;7.246;2024-03-06T03:46:12;4.38;;;1.00;;
4096;SDS011;2062;50.694;7.246;2024-03-06T03:48:40;5.40;;;1.10;;
4096;SDS011;2062;50.694;7.246;2024-03-06T03:51:08;4.22;;;1.00;;
4096;SDS011;2062;50.694;7.246;2024-03-06T03:53:35;5.70;;;1.30;;
4096;SDS011;2062;50.694;7.246;2024-03-06T03:56:02;4.68;;;1.00;;
4096;SDS011;2062;50.694;7.246;2024-03-06T03:58:29;5.65;;;1.10;;
4096;SDS011;2062;50.694;7.246;2024-03-06T04:00:56;4.37;;;1.27;;
4096;SDS011;2062;50.694;7.246;2024-03-06T04:03:22;5.07;;;1.30;;
4096;SDS011;2062;50.694;7.246;2024-03-06T04:05:51;4.18;;;1.30;;
4096;SDS011;2062;50.694;7.246;2024-03-06T04:08:18;5.65;;;1.40;;
4096;SDS011;2062;50.694;7.246;2024-03-06T04:10:44;5.95;;;1.75;;
4096;SDS011;2062;50.694;7.246;2024-03-06T04:13:11;5.77;;;1.30;;
4096;SDS011;2062;50.694;7.246;2024-03-06T04:15:38;3.90;;;1.38;;
4096;SDS011;2062;50.694;7.246;2024-03-06T04:18:05;6.50;;;1.48;;
4096;SDS011;2062;50.694;7.246;2024-03-06T04:20:32;4.40;;;1.38;;
4096;SDS011;2062;50.694;7.246;2024-03-06T04:23:00;4.40;;;1.50;;
4096;SDS011;2062;50.694;7.246;2024-03-06T04:25:27;5.13;;;1.40;;
4096;SDS011;2062;50.694;7.246;2024-03-06T04:27:54;6.90;;;1.73;;
4096;SDS011;2062;50.694;7.246;2024-03-06T04:30:21;4.50;;;1.35;;
4096;SDS011;2062;50.694;7.246;2024-03-06T04:32:48;4.13;;;1.38;;
4096;SDS011;2062;50.694;7.246;2024-03-06T04:35:14;4.43;;;1.40;;
4096;SDS011;2062;50.694;7.246;2024-03-06T04:37:41;4.27;;;1.40;;
4096;SDS011;2062;50.694;7.246;2024-03-06T04:40:10;5.28;;;1.38;;
4096;SDS011;2062;50.694;7.246;2024-03-06T04:42:40;5.00;;;1.35;;
4096;SDS011;2062;50.694;7.246;2024-03-06T04:45:10;5.47;;;1.50;;
4096;SDS011;2062;50.694;7.246;2024-03-06T04:47:37;4.90;;;1.58;;
4096;SDS011;2062;50.694;7.246;2024-03-06T04:50:07;4.70;;;1.50;;
4096;SDS011;2062;50.694;7.246;2024-03-06T04:52:35;5.63;;;1.48;;
4096;SDS011;2062;50.694;7.246;2024-03-06T04:55:02;5.65;;;1.60;;
4096;SDS011;2062;50.694;7.246;2024-03-06T04:57:31;4.05;;;1.30;;
4096;SDS011;2062;50.694;7.246;2024-03-06T04:59:57;6.05;;;1.45;;
4096;SDS011;2062;50.694;7.246;2024-03-06T05:02:24;5.03;;;1.37;;
4096;SDS011;2062;50.694;7.246;2024-03-06T05:04:51;4.47;;;1.40;;
4096;SDS011;2062;50.694;7.246;2024-03-06T05:07:18;5.78;;;1.27;;
4096;SDS011;2062;50.694;7.246;2024-03-06T05:09:45;5.50;;;1.20;;
4096;SDS011;2062;50.694;7.246;2024-03-06T05:12:11;6.10;;;1.20;;
4096;SDS011;2062;50.694;7.246;2024-03-06T05:14:40;5.53;;;1.50;;
4096;SDS011;2062;50.694;7.246;2024-03-06T05:17:07;3.47;;;0.98;;
4096;SDS011;2062;50.694;7.246;2024-03-06T05:19:34;5.82;;;1.20;;
4096;SDS011;2062;50.694;7.246;2024-03-06T05:22:00;3.97;;;1.00;;
4096;SDS011;2062;50.694;7.246;2024-03-06T05:24:27;7.40;;;1.38;;
4096;SDS011;2062;50.694;7.246;2024-03-06T05:26:54;4.03;;;1.30;;
4096;SDS011;2062;50.694;7.246;2024-03-06T05:29:21;5.07;;;1.15;;
4096;SDS011;2062;50.694;7.246;2024-03-06T05:31:49;4.68;;;1.25;;
4096;SDS011;2062;50.694;7.246;2024-03-06T05:34:15;4.82;;;1.30;;
4096;SDS011;2062;50.694;7.246;2024-03-06T05:36:43;4.55;;;1.20;;
4096;SDS011;2062;50.694;7.246;2024-03-06T05:39:10;4.30;;;1.00;;
4096;SDS011;2062;50.694;7.246;2024-03-06T05:41:37;5.13;;;1.30;;
4096;SDS011;2062;50.694;7.246;2024-03-06T05:44:05;5.00;;;1.25;;
4096;SDS011;2062;50.694;7.246;2024-03-06T05:46:31;5.72;;;1.40;;
4096;SDS011;2062;50.694;7.246;2024-03-06T05:49:00;4.10;;;1.30;;
4096;SDS011;2062;50.694;7.246;2024-03-06T05:51:27;5.70;;;1.37;;
4096;SDS011;2062;50.694;7.246;2024-03-06T05:53:54;5.72;;;1.42;;
4096;SDS011;2062;50.694;7.246;2024-03-06T05:56:21;6.18;;;1.50;;
4096;SDS011;2062;50.694;7.246;2024-03-06T05:58:47;6.13;;;1.10;;
4096;SDS011;2062;50.694;7.246;2024-03-06T06:01:14;4.63;;;1.55;;
4096;SDS011;2062;50.694;7.246;2024-03-06T06:03:45;5.10;;;1.20;;
4096;SDS011;2062;50.694;7.246;2024-03-06T06:06:14;4.57;;;1.40;;
4096;SDS011;2062;50.694;7.246;2024-03-06T06:08:40;5.28;;;1.10;;
4096;SDS011;2062;50.694;7.246;2024-03-06T06:11:09;4.47;;;1.20;;
4096;SDS011;2062;50.694;7.246;2024-03-06T06:13:35;5.53;;;1.30;;
4096;SDS011;2062;50.694;7.246;2024-03-06T06:16:03;5.73;;;1.20;;
4096;SDS011;2062;50.694;7.246;2024-03-06T06:18:30;7.10;;;1.30;;
4096;SDS011;2062;50.694;7.246;2024-03-06T06:20:57;4.47;;;1.13;;
4096;SDS011;2062;50.694;7.246;2024-03-06T06:23:25;3.70;;;1.00;;
4096;SDS011;2062;50.694;7.246;2024-03-06T06:25:52;6.25;;;1.23;;
4096;SDS011;2062;50.694;7.246;2024-03-06T06:28:19;4.17;;;1.20;;
4096;SDS011;2062;50.694;7.246;2024-03-06T06:30:45;4.60;;;1.23;;
4096;SDS011;2062;50.694;7.246;2024-03-06T06:33:12;5.25;;;1.17;;
4096;SDS011;2062;50.694;7.246;2024-03-06T06:35:39;4.80;;;1.27;;
4096;SDS011;2062;50.694;7.246;2024-03-06T06:38:06;3.75;;;1.02;;
4096;SDS011;2062;50.694;7.246;2024-03-06T06:40:34;5.83;;;1.20;;
4096;SDS011;2062;50.694;7.246;2024-03-06T06:43:01;5.70;;;1.30;;
4096;SDS011;2062;50.694;7.246;2024-03-06T06:45:28;5.35;;;1.17;;
4096;SDS011;2062;50.694;7.246;2024-03-06T06:47:54;3.92;;;1.10;;
4096;SDS011;2062;50.694;7.246;2024-03-06T06:50:21;4.75;;;1.20;;
4096;SDS011;2062;50.694;7.246;2024-03-06T06:52:50;4.53;;;1.40;;
4096;SDS011;2062;50.694;7.246;2024-03-06T06:55:17;4.43;;;1.23;;
4096;SDS011;2062;50.694;7.246;2024-03-06T06:57:49;5.30;;;1.45;;
4096;SDS011;2062;50.694;7.246;2024-03-06T07:00:16;7.57;;;1.73;;
4096;SDS011;2062;50.694;7.246;2024-03-06T07:02:43;5.53;;;1.70;;
4096;SDS011;2062;50.694;7.246;2024-03-06T07:05:11;6.37;;;1.50;;
4096;SDS011;2062;50.694;7.246;2024-03-06T07:07:38;5.47;;;1.50;;
4096;SDS011;2062;50.694;7.246;2024-03-06T07:10:05;4.68;;;1.25;;
4096;SDS011;2062;50.694;7.246;2024-03-06T07:12:33;6.43;;;1.90;;
4096;SDS011;2062;50.694;7.246;2024-03-06T07:15:01;4.55;;;1.40;;
4096;SDS011;2062;50.694;7.246;2024-03-06T07:17:28;6.77;;;1.80;;
4096;SDS011;2062;50.694;7.246;2024-03-06T07:19:55;7.85;;;1.67;;
4096;SDS011;2062;50.694;7.246;2024-03-06T07:22:22;5.60;;;1.77;;
4096;SDS011;2062;50.694;7.246;2024-03-06T07:24:49;4.90;;;1.70;;
4096;SDS011;2062;50.694;7.246;2024-03-06T07:27:16;5.03;;;1.63;;
4096;SDS011;2062;50.694;7.246;2024-03-06T07:29:43;5.93;;;1.53;;
4096;SDS011;2062;50.694;7.246;2024-03-06T07:32:11;4.10;;;1.30;;
4096;SDS011;2062;50.694;7.246;2024-03-06T07:34:38;4.80;;;1.40;;
4096;SDS011;2062;50.694;7.246;2024-03-06T07:37:05;5.28;;;1.20;;
4096;SDS011;2062;50.694;7.246;2024-03-06T07:39:31;4.78;;;1.30;;
4096;SDS011;2062;50.694;7.246;2024-03-06T07:41:59;6.40;;;1.37;;
4096;SDS011;2062;50.694;7.246;2024-03-06T07:44:27;5.05;;;1.67;;
4096;SDS011;2062;50.694;7.246;2024-03-06T07:46:54;5.55;;;1.73;;
4096;SDS011;2062;50.694;7.246;2024-03-06T07:49:22;6.03;;;1.98;;
4096;SDS011;2062;50.694;7.246;2024-03-06T07:51:49;7.03;;;1.92;;
4096;SDS011;2062;50.694;7.246;2024-03-06T07:54:16;5.97;;;1.87;;
4096;SDS011;2062;50.694;7.246;2024-03-06T07:56:43;5.35;;;1.90;;
4096;SDS011;2062;50.694;7.246;2024-03-06T07:59:10;5.13;;;1.92;;
4096;SDS011;2062;50.694;7.246;2024-03-06T08:01:37;6.72;;;2.25;;
4096;SDS011;2062;50.694;7.246;2024-03-06T08:04:04;5.40;;;2.30;;
4096;SDS011;2062;50.694;7.246;2024-03-06T08:06:33;5.57;;;1.77;;
4096;SDS011;2062;50.694;7.246;2024-03-06T08:09:02;6.97;;;1.77;;
4096;SDS011;2062;50.694;7.246;2024-03-06T08:11:29;6.88;;;2.45;;
4096;SDS011;2062;50.694;7.246;2024-03-06T08:13:56;6.05;;;2.55;;
4096;SDS011;2062;50.694;7.246;2024-03-06T08:16:24;6.40;;;2.25;;
4096;SDS011;2062;50.694;7.246;2024-03-06T08:18:51;4.97;;;1.97;;
4096;SDS011;2062;50.694;7.246;2024-03-06T08:21:17;5.72;;;2.33;;
4096;SDS011;2062;50.694;7.246;2024-03-06T08:23:46;6.78;;;2.67;;
4096;SDS011;2062;50.694;7.246;2024-03-06T08:26:13;6.68;;;2.67;;
4096;SDS011;2062;50.694;7.246;2024-03-06T08:28:40;5.78;;;2.65;;
4096;SDS011;2062;50.694;7.246;2024-03-06T08:31:06;7.67;;;2.50;;
4096;SDS011;2062;50.694;7.246;2024-03-06T08:33:34;7.35;;;2.70;;
4096;SDS011;2062;50.694;7.246;2024-03-06T08:36:00;5.68;;;2.75;;
4096;SDS011;2062;50.694;7.246;2024-03-06T08:38:27;5.32;;;2.15;;
4096;SDS011;2062;50.694;7.246;2024-03-06T08:40:55;8.00;;;2.70;;
4096;SDS011;2062;50.694;7.246;2024-03-06T08:43:22;6.57;;;2.50;;
4096;SDS011;2062;50.694;7.246;2024-03-06T08:45:49;8.68;;;2.42;;
4096;SDS011;2062;50.694;7.246;2024-03-06T08:48:15;7.20;;;2.30;;
4096;SDS011;2062;50.694;7.246;2024-03-06T08:50:43;5.72;;;2.20;;
4096;SDS011;2062;50.694;7.246;2024-03-06T08:53:10;6.47;;;2.30;;
4096;SDS011;2062;50.694;7.246;2024-03-06T08:55:39;7.27;;;2.27;;
4096;SDS011;2062;50.694;7.246;2024-03-06T08:58:07;5.43;;;2.20;;
4096;SDS011;2062;50.694;7.246;2024-03-06T09:00:34;6.47;;;2.10;;
4096;SDS011;2062;50.694;7.246;2024-03-06T09:03:02;5.53;;;2.30;;
4096;SDS011;2062;50.694;7.246;2024-03-06T09:05:30;6.03;;;2.10;;
4096;SDS011;2062;50.694;7.246;2024-03-06T09:07:57;4.87;;;1.80;;
4096;SDS011;2062;50.694;7.246;2024-03-06T09:10:24;5.20;;;2.10;;
4096;SDS011;2062;50.694;7.246;2024-03-06T09:12:50;7.13;;;2.20;;
4096;SDS011;2062;50.694;7.246;2024-03-06T09:15:18;6.05;;;2.30;;
4096;SDS011;2062;50.694;7.246;2024-03-06T09:17:45;5.50;;;2.45;;
4096;SDS011;2062;50.694;7.246;2024-03-06T09:20:13;5.83;;;2.00;;
4096;SDS011;2062;50.694;7.246;2024-03-06T09:22:41;5.95;;;2.22;;
4096;SDS011;2062;50.694;7.246;2024-03-06T09:25:08;5.50;;;2.30;;
4096;SDS011;2062;50.694;7.246;2024-03-06T09:27:37;5.78;;;2.35;;
4096;SDS011;2062;50.694;7.246;2024-03-06T09:30:04;6.47;;;2.50;;
4096;SDS011;2062;50.694;7.246;2024-03-06T09:32:35;6.63;;;2.17;;
4096;SDS011;2062;50.694;7.246;2024-03-06T09:35:02;5.93;;;2.30;;
4096;SDS011;2062;50.694;7.246;2024-03-06T09:37:29;6.22;;;2.45;;
4096;SDS011;2062;50.694;7.246;2024-03-06T09:39:56;6.20;;;2.45;;
4096;SDS011;2062;50.694;7.246;2024-03-06T09:42:23;6.43;;;2.40;;
4096;SDS011;2062;50.694;7.246;2024-03-06T09:44:50;5.60;;;2.50;;
4096;SDS011;2062;50.694;7.246;2024-03-06T09:47:18;5.65;;;2.50;;
4096;SDS011;2062;50.694;7.246;2024-03-06T09:49:51;5.57;;;2.70;;
4096;SDS011;2062;50.694;7.246;2024-03-06T09:52:19;5.28;;;2.60;;
4096;SDS011;2062;50.694;7.246;2024-03-06T09:54:46;6.85;;;2.90;;
4096;SDS011;2062;50.694;7.246;2024-03-06T09:57:14;6.43;;;2.80;;
4096;SDS011;2062;50.694;7.246;2024-03-06T09:59:41;8.23;;;2.88;;
4096;SDS011;2062;50.694;7.246;2024-03-06T10:02:12;6.28;;;3.38;;
4096;SDS011;2062;50.694;7.246;2024-03-06T10:04:56;4.70;;;2.33;;
4096;SDS011;2062;50.694;7.246;2024-03-06T10:07:23;7.35;;;3.35;;
4096;SDS011;2062;50.694;7.246;2024-03-06T10:09:52;6.67;;;3.10;;
4096;SDS011;2062;50.694;7.246;2024-03-06T10:12:18;7.10;;;3.60;;
4096;SDS011;2062;50.694;7.246;2024-03-06T10:14:50;6.05;;;3.10;;
4096;SDS011;2062;50.694;7.246;2024-03-06T10:17:20;7.50;;;3.20;;
4096;SDS011;2062;50.694;7.246;2024-03-06T10:19:48;7.43;;;3.83;;
4096;SDS011;2062;50.694;7.246;2024-03-06T10:22:17;6.63;;;3.40;;
4096;SDS011;2062;50.694;7.246;2024-03-06T10:24:45;6.50;;;3.50;;
4096;SDS011;2062;50.694;7.246;2024-03-06T10:27:14;7.32;;;3.42;;
4096;SDS011;2062;50.694;7.246;2024-03-06T10:29:42;7.00;;;2.97;;
4096;SDS011;2062;50.694;7.246;2024-03-06T10:32:09;7.93;;;3.50;;
4096;SDS011;2062;50.694;7.246;2024-03-06T10:34:36;6.97;;;3.53;;
4096;SDS011;2062;50.694;7.246;2024-03-06T10:37:05;6.95;;;3.55;;
4096;SDS011;2062;50.694;7.246;2024-03-06T10:39:34;8.57;;;4.00;;
4096;SDS011;2062;50.694;7.246;2024-03-06T10:42:09;8.43;;;3.72;;
4096;SDS011;2062;50.694;7.246;2024-03-06T10:44:41;7.15;;;3.90;;
4096;SDS011;2062;50.694;7.246;2024-03-06T10:47:13;8.30;;;4.30;;
4096;SDS011;2062;50.694;7.246;2024-03-06T10:49:41;9.85;;;3.90;;
4096;SDS011;2062;50.694;7.246;2024-03-06T10:52:08;8.43;;;4.30;;
4096;SDS011;2062;50.694;7.246;2024-03-06T10:54:37;9.45;;;4.60;;
4096;SDS011;2062;50.694;7.246;2024-03-06T10:57:07;9.57;;;4.93;;
4096;SDS011;2062;50.694;7.246;2024-03-06T10:59:36;9.63;;;4.33;;
4096;SDS011;2062;50.694;7.246;2024-03-06T11:02:03;9.70;;;4.50;;
4096;SDS011;2062;50.694;7.246;2024-03-06T11:04:30;10.65;;;4.80;;
4096;SDS011;2062;50.694;7.246;2024-03-06T11:06:59;10.05;;;5.20;;
4096;SDS011;2062;50.694;7.246;2024-03-06T11:09:27;10.30;;;5.45;;
4096;SDS011;2062;50.694;7.246;2024-03-06T11:11:55;8.70;;;4.43;;
4096;SDS011;2062;50.694;7.246;2024-03-06T11:14:22;10.05;;;4.97;;
4096;SDS011;2062;50.694;7.246;2024-03-06T11:16:57;10.32;;;5.13;;
4096;SDS011;2062;50.694;7.246;2024-03-06T11:19:25;9.85;;;4.90;;
4096;SDS011;2062;50.694;7.246;2024-03-06T11:21:52;10.13;;;4.80;;
4096;SDS011;2062;50.694;7.246;2024-03-06T11:24:20;11.00;;;4.97;;
4096;SDS011;2062;50.694;7.246;2024-03-06T11:26:52;9.90;;;4.50;;
4096;SDS011;2062;50.694;7.246;2024-03-06T11:29:26;11.85;;;5.43;;
4096;SDS011;2062;50.694;7.246;2024-03-06T11:32:01;10.07;;;4.88;;
4096;SDS011;2062;50.694;7.246;2024-03-06T11:34:31;11.50;;;5.65;;
4096;SDS011;2062;50.694;7.246;2024-03-06T11:36:58;10.97;;;5.33;;
4096;SDS011;2062;50.694;7.246;2024-03-06T11:39:28;12.18;;;6.10;;
4096;SDS011;2062;50.694;7.246;2024-03-06T11:41:57;12.20;;;5.68;;
4096;SDS011;2062;50.694;7.246;2024-03-06T11:44:24;10.65;;;5.65;;
4096;SDS011;2062;50.694;7.246;2024-03-06T11:46:57;12.63;;;6.10;;
4096;SDS011;2062;50.694;7.246;2024-03-06T11:49:25;10.97;;;5.57;;
4096;SDS011;2062;50.694;7.246;2024-03-06T11:51:54;11.82;;;5.65;;
4096;SDS011;2062;50.694;7.246;2024-03-06T11:54:22;13.85;;;5.70;;
4096;SDS011;2062;50.694;7.246;2024-03-06T11:56:52;12.57;;;6.53;;
4096;SDS011;2062;50.694;7.246;2024-03-06T11:59:22;12.55;;;6.32;;
4096;SDS011;2062;50.694;7.246;2024-03-06T12:01:49;14.97;;;6.90;;
4096;SDS011;2062;50.694;7.246;2024-03-06T12:04:16;14.30;;;6.57;;
4096;SDS011;2062;50.694;7.246;2024-03-06T12:06:44;12.68;;;6.75;;
4096;SDS011;2062;50.694;7.246;2024-03-06T12:09:11;14.43;;;6.90;;
4096;SDS011;2062;50.694;7.246;2024-03-06T12:11:37;14.23;;;7.05;;
4096;SDS011;2062;50.694;7.246;2024-03-06T12:14:04;12.43;;;6.50;;
4096;SDS011;2062;50.694;7.246;2024-03-06T12:16:32;11.18;;;6.25;;
4096;SDS011;2062;50.694;7.246;2024-03-06T12:18:59;14.38;;;7.35;;
4096;SDS011;2062;50.694;7.246;2024-03-06T12:21:30;12.55;;;6.53;;
4096;SDS011;2062;50.694;7.246;2024-03-06T12:24:03;12.65;;;7.03;;
4096;SDS011;2062;50.694;7.246;2024-03-06T12:26:31;12.87;;;6.60;;
4096;SDS011;2062;50.694;7.246;2024-03-06T12:29:04;13.07;;;6.15;;
4096;SDS011;2062;50.694;7.246;2024-03-06T12:31:33;13.18;;;6.75;;
4096;SDS011;2062;50.694;7.246;2024-03-06T12:34:01;12.43;;;6.53;;
4096;SDS011;2062;50.694;7.246;2024-03-06T12:36:29;12.30;;;6.25;;
4096;SDS011;2062;50.694;7.246;2024-03-06T12:38:56;13.37;;;6.87;;
4096;SDS011;2062;50.694;7.246;2024-03-06T12:41:25;13.32;;;6.43;;
4096;SDS011;2062;50.694;7.246;2024-03-06T12:43:53;13.68;;;6.78;;
4096;SDS011;2062;50.694;7.246;2024-03-06T12:46:20;12.65;;;6.53;;
4096;SDS011;2062;50.694;7.246;2024-03-06T12:48:49;13.05;;;6.60;;
4096;SDS011;2062;50.694;7.246;2024-03-06T12:51:16;12.67;;;6.27;;
4096;SDS011;2062;50.694;7.246;2024-03-06T12:53:43;14.10;;;6.68;;
4096;SDS011;2062;50.694;7.246;2024-03-06T12:56:10;12.55;;;6.32;;
4096;SDS011;2062;50.694;7.246;2024-03-06T12:58:37;13.05;;;6.53;;
4096;SDS011;2062;50.694;7.246;2024-03-06T13:01:03;12.43;;;6.63;;
4096;SDS011;2062;50.694;7.246;2024-03-06T13:03:30;12.20;;;6.53;;
4096;SDS011;2062;50.694;7.246;2024-03-06T13:05:59;11.10;;;5.82;;
4096;SDS011;2062;50.694;7.246;2024-03-06T13:08:25;11.35;;;5.72;;
4096;SDS011;2062;50.694;7.246;2024-03-06T13:10:53;11.90;;;5.80;;
4096;SDS011;2062;50.694;7.246;2024-03-06T13:13:21;13.13;;;5.80;;
4096;SDS011;2062;50.694;7.246;2024-03-06T13:15:48;12.33;;;5.37;;
4096;SDS011;2062;50.694;7.246;2024-03-06T13:18:15;13.65;;;5.90;;
4096;SDS011;2062;50.694;7.246;2024-03-06T13:20:42;10.88;;;5.53;;
4096;SDS011;2062;50.694;7.246;2024-03-06T13:23:10;10.38;;;5.50;;
4096;SDS011;2062;50.694;7.246;2024-03-06T13:25:37;10.32;;;5.93;;
4096;SDS011;2062;50.694;7.246;2024-03-06T13:28:04;10.97;;;5.23;;
4096;SDS011;2062;50.694;7.246;2024-03-06T13:30:31;9.30;;;5.00;;
4096;SDS011;2062;50.694;7.246;2024-03-06T13:32:58;11.32;;;4.85;;
4096;SDS011;2062;50.694;7.246;2024-03-06T13:35:25;9.82;;;5.05;;
4096;SDS011;2062;50.694;7.246;2024-03-06T13:37:52;10.02;;;4.95;;
4096;SDS011;2062;50.694;7.246;2024-03-06T13:40:20;9.27;;;4.30;;
4096;SDS011;2062;50.694;7.246;2024-03-06T13:42:47;10.40;;;4.80;;
4096;SDS011;2062;50.694;7.246;2024-03-06T13:45:14;10.82;;;5.07;;
4096;SDS011;2062;50.694;7.246;2024-03-06T13:47:41;9.93;;;4.70;;
4096;SDS011;2062;50.694;7.246;2024-03-06T13:50:09;11.05;;;4.57;;
4096;SDS011;2062;50.694;7.246;2024-03-06T13:52:37;10.70;;;4.40;;
4096;SDS011;2062;50.694;7.246;2024-03-06T13:55:04;9.13;;;4.47;;
4096;SDS011;2062;50.694;7.246;2024-03-06T13:57:34;9.60;;;4.60;;
4096;SDS011;2062;50.694;7.246;2024-03-06T14:00:03;9.25;;;4.43;;
4096;SDS011;2062;50.694;7.246;2024-03-06T14:02:37;9.23;;;4.30;;
4096;SDS011;2062;50.694;7.246;2024-03-06T14:05:04;8.67;;;3.73;;
4096;SDS011;2062;50.694;7.246;2024-03-06T14:07:31;10.18;;;4.10;;
4096;SDS011;2062;50.694;7.246;2024-03-06T14:09:59;9.25;;;4.18;;
4096;SDS011;2062;50.694;7.246;2024-03-06T14:12:26;7.93;;;4.07;;
4096;SDS011;2062;50.694;7.246;2024-03-06T14:14:54;7.03;;;3.60;;
4096;SDS011;2062;50.694;7.246;2024-03-06T14:17:20;8.43;;;3.73;;
4096;SDS011;2062;50.694;7.246;2024-03-06T14:19:47;7.93;;;3.83;;
4096;SDS011;2062;50.694;7.246;2024-03-06T14:22:14;8.20;;;3.55;;
4096;SDS011;2062;50.694;7.246;2024-03-06T14:24:42;7.68;;;3.40;;
4096;SDS011;2062;50.694;7.246;2024-03-06T14:27:08;7.55;;;3.28;;
4096;SDS011;2062;50.694;7.246;2024-03-06T14:29:35;8.40;;;3.17;;
4096;SDS011;2062;50.694;7.246;2024-03-06T14:32:04;7.88;;;3.50;;
4096;SDS011;2062;50.694;7.246;2024-03-06T14:34:31;8.35;;;3.75;;
4096;SDS011;2062;50.694;7.246;2024-03-06T14:36:58;8.43;;;3.58;;
4096;SDS011;2062;50.694;7.246;2024-03-06T14:39:25;7.78;;;3.35;;
4096;SDS011;2062;50.694;7.246;2024-03-06T14:41:52;6.87;;;3.27;;
4096;SDS011;2062;50.694;7.246;2024-03-06T14:44:19;7.57;;;3.25;;
4096;SDS011;2062;50.694;7.246;2024-03-06T14:46:46;6.65;;;3.20;;
4096;SDS011;2062;50.694;7.246;2024-03-06T14:49:14;7.43;;;3.35;;
4096;SDS011;2062;50.694;7.246;2024-03-06T14:51:42;6.55;;;3.03;;
4096;SDS011;2062;50.694;7.246;2024-03-06T14:54:08;6.33;;;2.67;;
4096;SDS011;2062;50.694;7.246;2024-03-06T14:56:35;6.40;;;2.45;;
4096;SDS011;2062;50.694;7.246;2024-03-06T14:59:02;7.50;;;2.60;;
4096;SDS011;2062;50.694;7.246;2024-03-06T15:01:29;5.97;;;2.25;;
4096;SDS011;2062;50.694;7.246;2024-03-06T15:03:56;6.75;;;2.42;;
4096;SDS011;2062;50.694;7.246;2024-03-06T15:06:24;5.27;;;2.33;;
4096;SDS011;2062;50.694;7.246;2024-03-06T15:08:51;5.00;;;2.20;;
4096;SDS011;2062;50.694;7.246;2024-03-06T15:11:18;5.57;;;2.10;;
4096;SDS011;2062;50.694;7.246;2024-03-06T15:13:47;5.95;;;2.40;;